createdAt,value
2019-04-04T00:01:50.161Z,6.40
2019-04-04T00:04:39.323Z,6.40
2019-04-04T00:07:29.049Z,6.30
2019-04-04T00:10:38.343Z,6.30
2019-04-04T00:13:27.900Z,6.20
2019-04-04T00:16:16.928Z,6.20
2019-04-04T00:19:05.923Z,6.10
2019-04-04T00:21:54.853Z,6.00
2019-04-04T00:24:25.034Z,6.10
2019-04-04T00:27:14.202Z,6.10
2019-04-04T00:30:03.446Z,6.10
2019-04-04T00:32:34.079Z,6.10
2019-04-04T00:35:23.097Z,6.10
2019-04-04T00:37:52.986Z,6.10
2019-04-04T00:40:42.503Z,6.10
2019-04-04T00:43:52.417Z,6.00
2019-04-04T00:46:54.203Z,5.90
2019-04-04T00:49:36.299Z,6.00
2019-04-04T00:52:18.222Z,6.20
2019-04-04T00:55:00.157Z,6.30
2019-04-04T00:57:42.792Z,6.30
2019-04-04T01:00:24.642Z,6.30
2019-04-04T01:03:06.352Z,6.40
2019-04-04T01:05:48.699Z,6.40
2019-04-04T01:08:18.751Z,6.30
2019-04-04T01:11:07.839Z,6.20
2019-04-04T01:13:57.929Z,6.20
2019-04-04T01:17:06.711Z,6.10
2019-04-04T01:19:59.111Z,6.10
2019-04-04T01:22:48.402Z,6.00
2019-04-04T01:25:37.381Z,6.20
2019-04-04T01:28:26.574Z,6.30
2019-04-04T01:31:15.679Z,6.30
2019-04-04T01:34:05.134Z,6.30
2019-04-04T01:36:56.561Z,6.20
2019-04-04T01:40:04.978Z,6.10
2019-04-04T01:42:53.997Z,6.30
2019-04-04T01:45:44.047Z,6.30
2019-04-04T01:48:53.083Z,6.20
2019-04-04T01:51:25.380Z,6.10
2019-04-04T01:54:33.461Z,6.10
2019-04-04T01:57:41.967Z,6.10
2019-04-04T02:00:32.567Z,5.90
2019-04-04T02:06:36.449Z,5.90
2019-04-04T02:09:25.846Z,6.00
2019-04-04T02:12:14.975Z,6.00
2019-04-04T02:15:04.780Z,6.00
2019-04-04T02:21:02.590Z,5.90
2019-04-04T02:23:52.374Z,5.90
2019-04-04T02:26:41.414Z,5.90
2019-04-04T02:29:30.628Z,5.90
2019-04-04T02:34:52.141Z,5.80
2019-04-04T02:37:22.259Z,5.80
2019-04-04T02:40:11.626Z,5.90
2019-04-04T02:43:00.649Z,5.90
2019-04-04T02:45:51.908Z,6.00
2019-04-04T02:48:41.020Z,6.20
2019-04-04T02:51:30.040Z,6.30
2019-04-04T02:54:00.099Z,6.20
2019-04-04T02:56:34.760Z,6.10
2019-04-04T02:59:40.377Z,6.10
2019-04-04T03:02:48.486Z,6.10
2019-04-04T03:05:37.401Z,5.90
2019-04-04T03:08:27.280Z,6.00
2019-04-04T03:11:21.591Z,5.90
2019-04-04T03:14:26.790Z,5.80
2019-04-04T03:17:15.864Z,5.70
2019-04-04T03:23:19.059Z,5.80
2019-04-04T03:26:08.073Z,5.70
2019-04-04T03:28:57.507Z,5.60
2019-04-04T03:31:39.669Z,5.90
2019-04-04T03:34:12.442Z,5.90
2019-04-04T03:37:19.925Z,6.00
2019-04-04T03:43:23.070Z,5.90
2019-04-04T03:45:53.199Z,5.90
2019-04-04T03:48:42.728Z,5.80
2019-04-04T03:51:12.804Z,5.80
2019-04-04T03:53:49.400Z,5.70
2019-04-04T03:56:19.518Z,5.80
2019-04-04T03:59:08.554Z,5.80
2019-04-04T04:01:57.990Z,5.60
2019-04-04T04:04:47.356Z,5.60
2019-04-04T04:07:36.257Z,5.60
2019-04-04T04:10:25.546Z,5.60
2019-04-04T04:13:17.344Z,5.60
2019-04-04T04:16:24.344Z,5.80
2019-04-04T04:19:13.359Z,5.90
2019-04-04T04:22:12.746Z,5.80
2019-04-04T04:25:18.923Z,5.60
2019-04-04T04:28:02.944Z,5.80
2019-04-04T04:30:44.424Z,5.90
2019-04-04T04:33:28.818Z,5.70
2019-04-04T04:36:10.380Z,5.90
2019-04-04T04:38:59.831Z,5.80
2019-04-04T04:41:39.965Z,5.70
2019-04-04T04:44:21.276Z,5.60
2019-04-04T04:47:02.815Z,5.50
2019-04-04T04:49:44.895Z,5.60
2019-04-04T04:52:26.607Z,5.60
2019-04-04T04:55:11.738Z,5.50
2019-04-04T04:57:51.844Z,5.40
2019-04-04T05:00:33.576Z,5.50
2019-04-04T05:03:15.299Z,5.60
2019-04-04T05:05:57.375Z,5.60
2019-04-04T05:08:27.122Z,5.60
2019-04-04T05:14:31.400Z,5.50
2019-04-04T05:17:20.863Z,5.50
2019-04-04T05:20:09.970Z,5.50
2019-04-04T05:22:58.911Z,5.40
2019-04-04T05:25:53.799Z,5.30
2019-04-04T05:28:57.745Z,5.30
2019-04-04T05:31:49.875Z,5.30
2019-04-04T05:34:37.339Z,5.20
2019-04-04T05:37:27.611Z,5.20
2019-04-04T05:40:36.245Z,5.30
2019-04-04T05:43:25.187Z,5.40
2019-04-04T05:46:14.231Z,5.40
2019-04-04T05:49:07.810Z,5.40
2019-04-04T05:55:47.446Z,5.30
2019-04-04T05:58:36.355Z,5.50
2019-04-04T06:01:25.431Z,5.50
2019-04-04T06:04:14.437Z,5.60
2019-04-04T06:06:44.289Z,5.50
2019-04-04T06:09:33.514Z,5.40
2019-04-04T06:12:22.990Z,5.60
2019-04-04T06:15:32.878Z,5.60
2019-04-04T06:18:42.983Z,5.60
2019-04-04T06:21:52.067Z,5.40
2019-04-04T06:24:41.726Z,5.50
2019-04-04T06:27:24.330Z,5.40
2019-04-04T06:30:05.534Z,5.20
2019-04-04T06:32:50.532Z,5.20
2019-04-04T06:35:32.146Z,5.10
2019-04-04T06:38:13.751Z,5.10
2019-04-04T06:40:43.596Z,5.10
2019-04-04T06:43:32.522Z,5.00
2019-04-04T06:46:22.897Z,5.00
2019-04-04T06:49:33.241Z,5.00
2019-04-04T06:52:41.407Z,5.00
2019-04-04T06:55:11.420Z,5.10
2019-04-04T06:57:41.275Z,4.90
2019-04-04T07:00:30.295Z,4.80
2019-04-04T07:03:19.497Z,4.80
2019-04-04T07:05:49.479Z,4.70
2019-04-04T07:08:38.646Z,4.90
2019-04-04T07:11:21.108Z,4.90
2019-04-04T07:13:59.781Z,5.00
2019-04-04T07:16:50.667Z,5.00
2019-04-04T07:19:39.680Z,5.00
2019-04-04T07:22:10.162Z,4.90
2019-04-04T07:25:01.156Z,4.80
2019-04-04T07:27:50.106Z,4.70
2019-04-04T07:30:39.340Z,4.70
2019-04-04T07:33:10.065Z,4.80
2019-04-04T07:35:59.946Z,4.70
2019-04-04T07:38:48.935Z,4.70
2019-04-04T07:41:40.079Z,4.70
2019-04-04T07:44:48.029Z,4.90
2019-04-04T07:47:17.935Z,4.90
2019-04-04T07:50:07.124Z,4.90
2019-04-04T07:52:56.131Z,4.80
2019-04-04T07:55:45.276Z,4.80
2019-04-04T07:58:34.242Z,4.80
2019-04-04T08:01:23.162Z,4.90
2019-04-04T08:04:12.125Z,4.80
2019-04-04T08:07:01.142Z,4.80
2019-04-04T08:09:50.075Z,4.90
2019-04-04T08:12:39.365Z,4.80
2019-04-04T08:15:28.703Z,4.90
2019-04-04T08:18:17.886Z,4.90
2019-04-04T08:20:59.775Z,5.00
2019-04-04T08:23:41.140Z,5.00
2019-04-04T08:26:22.547Z,5.10
2019-04-04T08:29:04.555Z,5.20
2019-04-04T08:31:45.821Z,5.30
2019-04-04T08:34:15.719Z,5.20
2019-04-04T08:36:45.511Z,5.30
2019-04-04T08:39:34.470Z,5.20
2019-04-04T08:42:23.407Z,5.30
2019-04-04T08:45:12.418Z,5.30
2019-04-04T08:48:01.647Z,5.40
2019-04-04T08:50:50.683Z,5.60
2019-04-04T08:53:40.522Z,5.50
2019-04-04T08:56:30.618Z,5.50
2019-04-04T08:59:19.582Z,5.70
2019-04-04T09:02:08.594Z,5.60
2019-04-04T09:05:10.867Z,5.70
2019-04-04T09:08:07.927Z,5.60
2019-04-04T09:10:57.014Z,5.60
2019-04-04T09:13:46.302Z,5.60
2019-04-04T09:16:35.322Z,5.60
2019-04-04T09:19:24.743Z,5.50
2019-04-04T09:22:06.606Z,5.50
2019-04-04T09:24:36.334Z,5.40
2019-04-04T09:27:25.611Z,5.50
2019-04-04T09:30:15.042Z,5.60
2019-04-04T09:33:04.198Z,5.50
2019-04-04T09:41:30.426Z,5.80
2019-04-04T09:44:19.334Z,5.60
2019-04-04T09:47:08.608Z,5.70
2019-04-04T09:49:57.854Z,5.90
2019-04-04T09:52:46.848Z,5.60
2019-04-04T09:55:35.864Z,5.60
2019-04-04T09:58:25.100Z,5.50
2019-04-04T10:01:14.184Z,5.60
2019-04-04T10:04:03.171Z,5.60
2019-04-04T10:06:33.449Z,5.80
2019-04-04T10:09:22.467Z,5.90
2019-04-04T10:11:52.594Z,6.00
2019-04-04T10:14:41.843Z,6.10
2019-04-04T10:17:24.040Z,6.00
2019-04-04T10:20:06.334Z,5.90
2019-04-04T10:22:48.072Z,5.70
2019-04-04T10:25:30.106Z,5.60
2019-04-04T10:28:12.320Z,5.60
2019-04-04T10:30:53.943Z,5.60
2019-04-04T10:33:24.407Z,5.70
2019-04-04T10:36:13.709Z,5.80
2019-04-04T10:39:08.698Z,5.80
2019-04-04T10:41:58.135Z,6.00
2019-04-04T10:47:56.119Z,6.10
2019-04-04T10:50:45.134Z,6.10
2019-04-04T10:53:34.144Z,5.90
2019-04-04T10:56:23.490Z,5.90
2019-04-04T10:59:12.425Z,5.80
2019-04-04T11:02:01.516Z,5.80
2019-04-04T11:04:31.210Z,5.90
2019-04-04T11:07:20.146Z,5.90
2019-04-04T11:09:49.910Z,6.10
2019-04-04T11:12:34.260Z,6.20
2019-04-04T11:15:14.951Z,6.20
2019-04-04T11:17:57.317Z,6.10
2019-04-04T11:20:39.331Z,6.10
2019-04-04T11:23:21.735Z,6.00
2019-04-04T11:26:03.643Z,5.90
2019-04-04T11:28:45.386Z,5.70
2019-04-04T11:31:15.376Z,5.60
2019-04-04T11:34:04.370Z,5.70
2019-04-04T11:36:53.591Z,5.80
2019-04-04T11:39:54.029Z,5.70
2019-04-04T11:42:34.062Z,5.80
2019-04-04T11:45:23.319Z,6.00
2019-04-04T11:48:12.670Z,5.90
2019-04-04T11:51:01.574Z,5.90
2019-04-04T11:53:50.782Z,5.90
2019-04-04T12:03:01.872Z,6.00
2019-04-04T12:05:44.167Z,5.90
2019-04-04T12:08:25.656Z,6.00
2019-04-04T12:11:07.647Z,6.00
2019-04-04T12:13:50.513Z,5.90
2019-04-04T12:16:32.997Z,6.00
2019-04-04T12:19:02.828Z,5.90
2019-04-04T12:21:51.788Z,5.50
2019-04-04T12:24:40.947Z,5.40
2019-04-04T12:30:57.322Z,5.20
2019-04-04T12:33:46.266Z,5.50
2019-04-04T12:36:35.231Z,5.60
2019-04-04T12:39:24.422Z,5.70
2019-04-04T12:42:13.336Z,5.60
2019-04-04T12:45:05.224Z,5.70
2019-04-04T12:48:12.315Z,5.80
2019-04-04T12:51:01.689Z,5.90
2019-04-04T12:53:50.722Z,5.90
2019-04-04T12:56:20.666Z,5.90
2019-04-04T12:59:09.678Z,6.00
2019-04-04T13:01:51.799Z,6.20
2019-04-04T13:04:33.475Z,6.10
2019-04-04T13:07:15.815Z,6.00
2019-04-04T13:09:57.778Z,6.00
2019-04-04T13:12:39.004Z,6.00
2019-04-04T13:15:21.191Z,6.10
2019-04-04T13:18:03.431Z,6.10
2019-04-04T13:20:45.534Z,6.10
2019-04-04T13:23:27.710Z,6.00
2019-04-04T13:26:09.706Z,5.90
2019-04-04T13:28:51.335Z,5.80
2019-04-04T13:31:32.982Z,5.70
2019-04-04T13:34:14.806Z,5.90
2019-04-04T13:36:56.576Z,5.70
2019-04-04T13:39:38.571Z,5.70
2019-04-04T13:42:20.610Z,5.60
2019-04-04T13:45:02.555Z,5.60
2019-04-04T13:47:44.246Z,5.70
2019-04-04T13:50:25.994Z,5.50
2019-04-04T13:53:07.926Z,5.60
2019-04-04T13:55:49.583Z,5.70
2019-04-04T13:58:31.450Z,5.80
2019-04-04T14:01:13.594Z,5.70
2019-04-04T14:03:55.613Z,5.80
2019-04-04T14:06:38.283Z,5.80
2019-04-04T14:09:12.096Z,5.80
2019-04-04T14:12:19.070Z,5.90
2019-04-04T14:15:08.876Z,6.00
2019-04-04T14:17:57.769Z,5.80
2019-04-04T14:20:46.954Z,5.90
2019-04-04T14:23:16.711Z,6.00
2019-04-04T14:25:46.474Z,6.30
2019-04-04T14:28:35.711Z,6.20
2019-04-04T14:31:25.464Z,6.20
2019-04-04T14:34:14.518Z,6.30
2019-04-04T14:37:03.482Z,6.40
2019-04-04T14:39:52.479Z,6.30
2019-04-04T14:42:41.374Z,6.30
2019-04-04T14:45:11.710Z,6.20
2019-04-04T14:48:00.611Z,6.10
2019-04-04T14:50:49.570Z,6.20
2019-04-04T14:53:38.634Z,6.20
2019-04-04T14:56:29.101Z,6.20
2019-04-04T14:59:37.351Z,6.20
2019-04-04T15:05:34.832Z,6.20
2019-04-04T15:08:23.744Z,6.30
2019-04-04T15:11:23.503Z,6.20
2019-04-04T15:20:49.922Z,6.40
2019-04-04T15:26:46.866Z,6.50
2019-04-04T15:29:35.779Z,6.60
2019-04-04T15:35:32.968Z,6.70
2019-04-04T15:47:51.061Z,6.50
2019-04-04T15:50:33.222Z,6.60
2019-04-04T15:53:15.238Z,6.60
2019-04-04T15:55:56.516Z,6.50
2019-04-04T15:58:38.183Z,6.70
2019-04-04T16:01:19.614Z,6.60
2019-04-04T16:04:01.116Z,6.50
2019-04-04T16:06:43.102Z,6.50
2019-04-04T16:09:24.989Z,6.30
2019-04-04T16:12:06.586Z,6.30
2019-04-04T16:14:48.776Z,6.40
2019-04-04T16:17:30.927Z,6.30
2019-04-04T16:20:12.456Z,6.40
2019-04-04T16:22:54.387Z,6.40
2019-04-04T16:25:36.491Z,6.40
2019-04-04T16:28:18.680Z,6.30
2019-04-04T16:31:00.826Z,6.40
2019-04-04T16:33:42.102Z,6.20
2019-04-04T16:36:24.202Z,6.30
2019-04-04T16:39:07.192Z,6.30
2019-04-04T16:42:01.151Z,6.20
2019-04-04T16:44:32.164Z,5.90
2019-04-04T16:47:13.499Z,5.80
2019-04-04T16:49:55.657Z,5.70
2019-04-04T16:52:37.416Z,5.80
2019-04-04T16:55:19.459Z,5.70
2019-04-04T16:57:49.606Z,5.60
2019-04-04T17:03:47.414Z,5.50
2019-04-04T17:06:36.321Z,5.50
2019-04-04T17:09:25.247Z,5.50
2019-04-04T17:12:15.288Z,5.50
2019-04-04T17:15:23.998Z,5.60
2019-04-04T17:18:12.921Z,5.50
2019-04-04T17:21:01.843Z,5.40
2019-04-04T17:23:51.034Z,5.50
2019-04-04T17:26:39.943Z,5.50
2019-04-04T17:32:23.783Z,5.50
2019-04-04T17:38:21.559Z,5.30
2019-04-04T17:41:23.960Z,5.30
2019-04-04T17:44:06.647Z,5.20
2019-04-04T17:46:48.372Z,5.30
2019-04-04T17:49:30.527Z,5.30
2019-04-04T17:52:00.776Z,5.30
2019-04-04T17:54:30.495Z,5.30
2019-04-04T17:57:00.497Z,5.20
2019-04-04T18:06:17.748Z,5.20
2019-04-04T18:08:47.471Z,5.20
2019-04-04T18:17:58.951Z,5.20
2019-04-04T18:20:48.338Z,5.20
2019-04-04T18:23:37.599Z,5.10
2019-04-04T18:26:26.766Z,5.10
2019-04-04T18:29:15.803Z,5.20
2019-04-04T18:31:45.486Z,5.20
2019-04-04T18:34:34.668Z,5.10
2019-04-04T18:37:16.654Z,5.10
2019-04-04T18:43:07.715Z,5.00
2019-04-04T18:45:56.773Z,5.10
2019-04-04T18:48:46.270Z,5.20
2019-04-04T18:51:37.601Z,5.10
2019-04-04T18:54:45.034Z,5.10
2019-04-04T18:57:34.270Z,5.10
2019-04-04T19:00:23.399Z,5.10
2019-04-04T19:03:12.372Z,5.00
2019-04-04T19:09:15.642Z,5.00
2019-04-04T19:15:13.497Z,4.90
2019-04-04T19:18:02.462Z,4.80
2019-04-04T19:23:49.453Z,4.70
2019-04-04T19:26:56.031Z,4.80
2019-04-04T19:29:45.199Z,4.70
2019-04-04T19:32:34.189Z,4.60
2019-04-04T19:35:23.189Z,4.70
2019-04-04T19:38:04.926Z,4.80
2019-04-04T19:40:46.582Z,4.60
2019-04-04T19:43:28.699Z,4.50
2019-04-04T19:46:11.380Z,4.60
2019-04-04T19:48:53.691Z,4.60
2019-04-04T19:51:35.795Z,4.50
2019-04-04T19:54:19.393Z,4.60
2019-04-04T19:57:01.643Z,4.70
2019-04-04T19:59:43.662Z,4.70
2019-04-04T20:02:13.578Z,4.60
2019-04-04T20:05:02.710Z,4.60
2019-04-04T20:07:51.801Z,4.60
2019-04-04T20:10:40.727Z,4.60
2019-04-04T20:13:10.474Z,4.70
2019-04-04T20:15:59.504Z,4.60
2019-04-04T20:21:56.658Z,4.70
2019-04-04T20:24:45.957Z,4.70
2019-04-04T20:27:16.034Z,4.70
2019-04-04T20:30:05.783Z,4.80
2019-04-04T20:32:54.770Z,4.90
2019-04-04T20:35:43.899Z,4.70
2019-04-04T20:38:32.960Z,4.60
2019-04-04T20:41:22.007Z,4.70
2019-04-04T20:44:11.231Z,4.70
2019-04-04T20:46:41.065Z,4.70
2019-04-04T20:49:11.163Z,4.80
2019-04-04T20:52:00.474Z,4.80
2019-04-04T20:54:49.493Z,4.80
2019-04-04T20:57:38.999Z,4.80
2019-04-04T21:00:28.050Z,4.80
2019-04-04T21:03:17.380Z,4.70
2019-04-04T21:05:47.348Z,4.60
2019-04-04T21:08:36.611Z,4.70
2019-04-04T21:20:34.839Z,4.60
2019-04-04T21:23:23.744Z,4.60
2019-04-04T21:26:12.907Z,4.70
2019-04-04T21:29:02.234Z,4.60
2019-04-04T21:31:32.415Z,4.50
2019-04-04T21:34:02.125Z,4.50
2019-04-04T21:36:51.171Z,4.60
2019-04-04T21:39:21.098Z,4.60
2019-04-04T21:42:10.495Z,4.60
2019-04-04T21:44:59.600Z,4.50
2019-04-04T21:51:02.191Z,4.40
2019-04-04T21:53:51.194Z,4.40
2019-04-04T21:56:21.410Z,4.50
2019-04-04T22:02:19.063Z,4.60
2019-04-04T22:05:08.555Z,4.60
2019-04-04T22:07:57.683Z,4.60
2019-04-04T22:10:46.699Z,4.70
2019-04-04T22:13:36.354Z,4.70
2019-04-04T22:16:25.282Z,4.70
2019-04-04T22:18:55.455Z,4.70
2019-04-04T22:21:44.774Z,4.70
2019-04-04T22:24:34.002Z,4.80
2019-04-04T22:27:15.875Z,4.80
2019-04-04T22:29:57.796Z,4.70
2019-04-04T22:32:39.863Z,4.80
2019-04-04T22:35:21.899Z,4.80
2019-04-04T22:38:03.922Z,4.80
2019-04-04T22:40:45.756Z,4.80
2019-04-04T22:43:30.903Z,4.70
2019-04-04T22:46:00.755Z,4.70
2019-04-04T22:48:49.756Z,4.60
2019-04-04T22:51:38.724Z,4.60
2019-04-04T22:54:27.760Z,4.60
2019-04-04T22:57:16.815Z,4.60
2019-04-04T23:00:06.246Z,4.60
2019-04-04T23:02:55.722Z,4.50
2019-04-04T23:05:45.031Z,4.50
2019-04-04T23:11:28.778Z,4.60
2019-04-04T23:14:17.924Z,4.60
2019-04-04T23:17:07.107Z,4.60
2019-04-04T23:19:56.092Z,4.60
2019-04-04T23:22:37.750Z,4.50
2019-04-04T23:25:38.779Z,4.60
2019-04-04T23:28:20.842Z,4.60
2019-04-04T23:30:50.999Z,4.60
2019-04-04T23:33:59.354Z,4.60
2019-04-04T23:57:46.642Z,4.80
